sensor_id;sensor_type;location;lat;lon;timestamp;temperature
37772;DS18B20;23610;59.380;24.642;2022-07-23T00:04:28;19.44
37772;DS18B20;23610;59.380;24.642;2022-07-23T00:09:32;19.38
37772;DS18B20;23610;59.380;24.642;2022-07-23T00:14:34;19.31
37772;DS18B20;23610;59.380;24.642;2022-07-23T00:19:37;19.44
37772;DS18B20;23610;59.380;24.642;2022-07-23T00:24:39;19.38
37772;DS18B20;23610;59.380;24.642;2022-07-23T00:29:42;19.13
37772;DS18B20;23610;59.380;24.642;2022-07-23T00:34:45;19.31
37772;DS18B20;23610;59.380;24.642;2022-07-23T00:39:47;19.38
37772;DS18B20;23610;59.380;24.642;2022-07-23T00:44:50;19.31
37772;DS18B20;23610;59.380;24.642;2022-07-23T00:49:52;19.13
37772;DS18B20;23610;59.380;24.642;2022-07-23T00:54:55;19.13
37772;DS18B20;23610;59.380;24.642;2022-07-23T00:59:58;19.13
37772;DS18B20;23610;59.380;24.642;2022-07-23T01:05:01;19.06
37772;DS18B20;23610;59.380;24.642;2022-07-23T01:10:06;19.13
37772;DS18B20;23610;59.380;24.642;2022-07-23T01:15:30;19.00
37772;DS18B20;23610;59.380;24.642;2022-07-23T01:20:34;18.94
37772;DS18B20;23610;59.380;24.642;2022-07-23T01:25:37;19.00
37772;DS18B20;23610;59.380;24.642;2022-07-23T01:30:41;18.88
37772;DS18B20;23610;59.380;24.642;2022-07-23T01:35:44;18.94
37772;DS18B20;23610;59.380;24.642;2022-07-23T01:40:51;18.81
37772;DS18B20;23610;59.380;24.642;2022-07-23T01:46:00;18.81
37772;DS18B20;23610;59.380;24.642;2022-07-23T01:51:08;18.69
37772;DS18B20;23610;59.380;24.642;2022-07-23T01:56:18;18.69
37772;DS18B20;23610;59.380;24.642;2022-07-23T02:01:23;18.63
37772;DS18B20;23610;59.380;24.642;2022-07-23T02:06:26;18.63
37772;DS18B20;23610;59.380;24.642;2022-07-23T02:11:28;18.63
37772;DS18B20;23610;59.380;24.642;2022-07-23T02:16:31;18.69
37772;DS18B20;23610;59.380;24.642;2022-07-23T02:21:37;18.75
37772;DS18B20;23610;59.380;24.642;2022-07-23T02:26:39;18.75
37772;DS18B20;23610;59.380;24.642;2022-07-23T02:31:43;18.81
37772;DS18B20;23610;59.380;24.642;2022-07-23T02:36:47;18.75
37772;DS18B20;23610;59.380;24.642;2022-07-23T02:41:49;18.75
37772;DS18B20;23610;59.380;24.642;2022-07-23T02:46:52;18.81
37772;DS18B20;23610;59.380;24.642;2022-07-23T02:51:55;18.75
37772;DS18B20;23610;59.380;24.642;2022-07-23T02:56:57;18.75
37772;DS18B20;23610;59.380;24.642;2022-07-23T03:02:01;18.75
37772;DS18B20;23610;59.380;24.642;2022-07-23T03:07:04;18.75
37772;DS18B20;23610;59.380;24.642;2022-07-23T03:12:07;18.69
37772;DS18B20;23610;59.380;24.642;2022-07-23T03:17:15;18.69
37772;DS18B20;23610;59.380;24.642;2022-07-23T03:22:18;18.63
37772;DS18B20;23610;59.380;24.642;2022-07-23T03:27:25;18.56
37772;DS18B20;23610;59.380;24.642;2022-07-23T03:32:29;18.63
37772;DS18B20;23610;59.380;24.642;2022-07-23T03:37:31;18.63
37772;DS18B20;23610;59.380;24.642;2022-07-23T03:42:35;18.69
37772;DS18B20;23610;59.380;24.642;2022-07-23T03:47:39;18.75
37772;DS18B20;23610;59.380;24.642;2022-07-23T03:52:42;18.75
37772;DS18B20;23610;59.380;24.642;2022-07-23T03:57:46;18.69
37772;DS18B20;23610;59.380;24.642;2022-07-23T04:02:49;18.75
37772;DS18B20;23610;59.380;24.642;2022-07-23T04:07:52;18.75
37772;DS18B20;23610;59.380;24.642;2022-07-23T04:12:55;18.75
37772;DS18B20;23610;59.380;24.642;2022-07-23T04:17:58;18.88
37772;DS18B20;23610;59.380;24.642;2022-07-23T04:23:10;18.88
37772;DS18B20;23610;59.380;24.642;2022-07-23T04:28:13;18.94
37772;DS18B20;23610;59.380;24.642;2022-07-23T04:33:16;18.94
37772;DS18B20;23610;59.380;24.642;2022-07-23T04:38:22;18.94
37772;DS18B20;23610;59.380;24.642;2022-07-23T04:43:28;19.06
37772;DS18B20;23610;59.380;24.642;2022-07-23T04:48:31;19.13
37772;DS18B20;23610;59.380;24.642;2022-07-23T04:53:42;19.06
37772;DS18B20;23610;59.380;24.642;2022-07-23T04:58:47;19.00
37772;DS18B20;23610;59.380;24.642;2022-07-23T05:03:50;19.25
37772;DS18B20;23610;59.380;24.642;2022-07-23T05:08:52;19.25
37772;DS18B20;23610;59.380;24.642;2022-07-23T05:13:57;19.31
37772;DS18B20;23610;59.380;24.642;2022-07-23T05:19:00;19.63
37772;DS18B20;23610;59.380;24.642;2022-07-23T05:24:06;19.75
37772;DS18B20;23610;59.380;24.642;2022-07-23T05:29:09;19.63
37772;DS18B20;23610;59.380;24.642;2022-07-23T05:34:12;19.50
37772;DS18B20;23610;59.380;24.642;2022-07-23T05:39:20;19.50
37772;DS18B20;23610;59.380;24.642;2022-07-23T05:44:22;19.63
37772;DS18B20;23610;59.380;24.642;2022-07-23T05:49:25;19.69
37772;DS18B20;23610;59.380;24.642;2022-07-23T05:54:47;19.88
37772;DS18B20;23610;59.380;24.642;2022-07-23T05:59:50;19.94
37772;DS18B20;23610;59.380;24.642;2022-07-23T06:04:53;20.06
37772;DS18B20;23610;59.380;24.642;2022-07-23T06:10:05;20.06
37772;DS18B20;23610;59.380;24.642;2022-07-23T06:15:09;20.38
37772;DS18B20;23610;59.380;24.642;2022-07-23T06:20:14;20.44
37772;DS18B20;23610;59.380;24.642;2022-07-23T06:25:17;20.31
37772;DS18B20;23610;59.380;24.642;2022-07-23T06:30:21;20.25
37772;DS18B20;23610;59.380;24.642;2022-07-23T06:35:26;20.44
37772;DS18B20;23610;59.380;24.642;2022-07-23T06:40:29;20.38
37772;DS18B20;23610;59.380;24.642;2022-07-23T06:45:31;20.75
37772;DS18B20;23610;59.380;24.642;2022-07-23T06:50:34;21.13
37772;DS18B20;23610;59.380;24.642;2022-07-23T06:55:37;21.13
37772;DS18B20;23610;59.380;24.642;2022-07-23T07:00:41;21.38
37772;DS18B20;23610;59.380;24.642;2022-07-23T07:05:43;21.75
37772;DS18B20;23610;59.380;24.642;2022-07-23T07:10:46;21.88
37772;DS18B20;23610;59.380;24.642;2022-07-23T07:15:49;21.81
37772;DS18B20;23610;59.380;24.642;2022-07-23T07:20:51;21.63
37772;DS18B20;23610;59.380;24.642;2022-07-23T07:25:57;21.63
37772;DS18B20;23610;59.380;24.642;2022-07-23T07:31:00;21.69
37772;DS18B20;23610;59.380;24.642;2022-07-23T07:36:05;21.75
37772;DS18B20;23610;59.380;24.642;2022-07-23T07:41:12;21.75
37772;DS18B20;23610;59.380;24.642;2022-07-23T07:46:42;21.88
37772;DS18B20;23610;59.380;24.642;2022-07-23T07:51:47;22.00
37772;DS18B20;23610;59.380;24.642;2022-07-23T07:56:51;21.63
37772;DS18B20;23610;59.380;24.642;2022-07-23T08:01:54;21.31
37772;DS18B20;23610;59.380;24.642;2022-07-23T08:07:00;21.63
37772;DS18B20;23610;59.380;24.642;2022-07-23T08:12:06;22.13
37772;DS18B20;23610;59.380;24.642;2022-07-23T08:17:10;22.13
37772;DS18B20;23610;59.380;24.642;2022-07-23T08:22:17;21.75
37772;DS18B20;23610;59.380;24.642;2022-07-23T08:27:21;21.69
37772;DS18B20;23610;59.380;24.642;2022-07-23T08:32:27;22.06
37772;DS18B20;23610;59.380;24.642;2022-07-23T08:37:51;22.06
37772;DS18B20;23610;59.380;24.642;2022-07-23T08:43:03;22.19
37772;DS18B20;23610;59.380;24.642;2022-07-23T08:48:19;22.75
37772;DS18B20;23610;59.380;24.642;2022-07-23T08:53:27;22.94
37772;DS18B20;23610;59.380;24.642;2022-07-23T08:58:31;23.00
37772;DS18B20;23610;59.380;24.642;2022-07-23T09:03:36;22.94
37772;DS18B20;23610;59.380;24.642;2022-07-23T09:08:44;23.25
37772;DS18B20;23610;59.380;24.642;2022-07-23T09:13:51;23.38
37772;DS18B20;23610;59.380;24.642;2022-07-23T09:19:05;23.06
37772;DS18B20;23610;59.380;24.642;2022-07-23T09:24:12;22.75
37772;DS18B20;23610;59.380;24.642;2022-07-23T09:29:25;22.63
37772;DS18B20;23610;59.380;24.642;2022-07-23T09:34:31;22.75
37772;DS18B20;23610;59.380;24.642;2022-07-23T09:39:36;23.00
37772;DS18B20;23610;59.380;24.642;2022-07-23T09:44:46;23.00
37772;DS18B20;23610;59.380;24.642;2022-07-23T09:50:08;23.38
37772;DS18B20;23610;59.380;24.642;2022-07-23T09:55:12;23.06
37772;DS18B20;23610;59.380;24.642;2022-07-23T10:00:18;22.81
37772;DS18B20;23610;59.380;24.642;2022-07-23T10:05:24;22.75
37772;DS18B20;23610;59.380;24.642;2022-07-23T10:10:48;22.56
37772;DS18B20;23610;59.380;24.642;2022-07-23T10:16:13;22.25
37772;DS18B20;23610;59.380;24.642;2022-07-23T10:37:34;23.06
37772;DS18B20;23610;59.380;24.642;2022-07-23T10:42:39;23.81
37772;DS18B20;23610;59.380;24.642;2022-07-23T10:47:43;24.00
37772;DS18B20;23610;59.380;24.642;2022-07-23T10:58:11;22.88
37772;DS18B20;23610;59.380;24.642;2022-07-23T11:03:31;23.00
37772;DS18B20;23610;59.380;24.642;2022-07-23T11:08:40;23.50
37772;DS18B20;23610;59.380;24.642;2022-07-23T11:13:46;23.63
37772;DS18B20;23610;59.380;24.642;2022-07-23T11:18:52;23.69
37772;DS18B20;23610;59.380;24.642;2022-07-23T11:34:54;23.69
37772;DS18B20;23610;59.380;24.642;2022-07-23T11:39:58;23.75
37772;DS18B20;23610;59.380;24.642;2022-07-23T11:45:01;23.81
37772;DS18B20;23610;59.380;24.642;2022-07-23T11:50:06;23.44
37772;DS18B20;23610;59.380;24.642;2022-07-23T11:55:11;23.63
37772;DS18B20;23610;59.380;24.642;2022-07-23T12:00:21;24.13
37772;DS18B20;23610;59.380;24.642;2022-07-23T12:05:34;23.44
37772;DS18B20;23610;59.380;24.642;2022-07-23T12:10:43;22.94
37772;DS18B20;23610;59.380;24.642;2022-07-23T12:15:52;22.44
37772;DS18B20;23610;59.380;24.642;2022-07-23T12:20:57;22.25
37772;DS18B20;23610;59.380;24.642;2022-07-23T12:26:05;22.19
37772;DS18B20;23610;59.380;24.642;2022-07-23T12:31:09;22.25
37772;DS18B20;23610;59.380;24.642;2022-07-23T12:36:14;22.19
37772;DS18B20;23610;59.380;24.642;2022-07-23T12:41:17;22.13
37772;DS18B20;23610;59.380;24.642;2022-07-23T12:46:21;22.19
37772;DS18B20;23610;59.380;24.642;2022-07-23T12:51:34;22.13
37772;DS18B20;23610;59.380;24.642;2022-07-23T12:56:47;21.88
37772;DS18B20;23610;59.380;24.642;2022-07-23T13:01:57;21.75
37772;DS18B20;23610;59.380;24.642;2022-07-23T13:07:01;21.63
37772;DS18B20;23610;59.380;24.642;2022-07-23T13:12:06;20.88
37772;DS18B20;23610;59.380;24.642;2022-07-23T13:17:09;20.44
37772;DS18B20;23610;59.380;24.642;2022-07-23T13:22:12;20.13
37772;DS18B20;23610;59.380;24.642;2022-07-23T13:27:15;19.94
37772;DS18B20;23610;59.380;24.642;2022-07-23T13:32:24;19.81
37772;DS18B20;23610;59.380;24.642;2022-07-23T13:37:27;19.69
37772;DS18B20;23610;59.380;24.642;2022-07-23T13:42:30;19.63
37772;DS18B20;23610;59.380;24.642;2022-07-23T13:47:33;19.81
37772;DS18B20;23610;59.380;24.642;2022-07-23T13:52:36;19.94
37772;DS18B20;23610;59.380;24.642;2022-07-23T13:57:39;20.06
37772;DS18B20;23610;59.380;24.642;2022-07-23T14:02:42;20.13
37772;DS18B20;23610;59.380;24.642;2022-07-23T14:07:46;19.94
37772;DS18B20;23610;59.380;24.642;2022-07-23T14:12:53;19.94
37772;DS18B20;23610;59.380;24.642;2022-07-23T14:17:58;19.94
37772;DS18B20;23610;59.380;24.642;2022-07-23T14:23:02;19.94
37772;DS18B20;23610;59.380;24.642;2022-07-23T14:28:07;19.81
37772;DS18B20;23610;59.380;24.642;2022-07-23T14:33:10;19.88
37772;DS18B20;23610;59.380;24.642;2022-07-23T14:38:13;19.88
37772;DS18B20;23610;59.380;24.642;2022-07-23T14:43:16;20.19
37772;DS18B20;23610;59.380;24.642;2022-07-23T14:48:19;20.44
37772;DS18B20;23610;59.380;24.642;2022-07-23T14:53:23;20.50
37772;DS18B20;23610;59.380;24.642;2022-07-23T14:58:27;20.44
37772;DS18B20;23610;59.380;24.642;2022-07-23T15:03:29;20.19
37772;DS18B20;23610;59.380;24.642;2022-07-23T15:08:41;20.19
37772;DS18B20;23610;59.380;24.642;2022-07-23T15:13:45;20.19
37772;DS18B20;23610;59.380;24.642;2022-07-23T15:18:49;20.13
37772;DS18B20;23610;59.380;24.642;2022-07-23T15:23:53;20.19
37772;DS18B20;23610;59.380;24.642;2022-07-23T15:28:58;20.06
37772;DS18B20;23610;59.380;24.642;2022-07-23T15:34:06;20.00
37772;DS18B20;23610;59.380;24.642;2022-07-23T15:39:08;20.06
37772;DS18B20;23610;59.380;24.642;2022-07-23T15:44:12;20.06
37772;DS18B20;23610;59.380;24.642;2022-07-23T15:49:30;20.00
37772;DS18B20;23610;59.380;24.642;2022-07-23T15:54:34;20.00
37772;DS18B20;23610;59.380;24.642;2022-07-23T15:59:38;19.81
37772;DS18B20;23610;59.380;24.642;2022-07-23T16:04:43;19.75
37772;DS18B20;23610;59.380;24.642;2022-07-23T16:09:46;19.56
37772;DS18B20;23610;59.380;24.642;2022-07-23T16:14:49;19.44
37772;DS18B20;23610;59.380;24.642;2022-07-23T16:19:52;19.38
37772;DS18B20;23610;59.380;24.642;2022-07-23T16:24:55;19.19
37772;DS18B20;23610;59.380;24.642;2022-07-23T16:29:58;19.00
37772;DS18B20;23610;59.380;24.642;2022-07-23T16:35:01;18.88
37772;DS18B20;23610;59.380;24.642;2022-07-23T16:40:16;18.94
37772;DS18B20;23610;59.380;24.642;2022-07-23T16:45:19;18.94
37772;DS18B20;23610;59.380;24.642;2022-07-23T16:50:24;18.94
37772;DS18B20;23610;59.380;24.642;2022-07-23T16:55:27;18.94
37772;DS18B20;23610;59.380;24.642;2022-07-23T17:00:30;18.94
37772;DS18B20;23610;59.380;24.642;2022-07-23T17:05:33;19.00
37772;DS18B20;23610;59.380;24.642;2022-07-23T17:10:37;19.00
37772;DS18B20;23610;59.380;24.642;2022-07-23T17:15:40;18.88
37772;DS18B20;23610;59.380;24.642;2022-07-23T17:20:43;18.75
37772;DS18B20;23610;59.380;24.642;2022-07-23T17:25:46;18.75
37772;DS18B20;23610;59.380;24.642;2022-07-23T17:30:50;18.69
37772;DS18B20;23610;59.380;24.642;2022-07-23T17:35:53;18.69
37772;DS18B20;23610;59.380;24.642;2022-07-23T17:40:58;18.75
37772;DS18B20;23610;59.380;24.642;2022-07-23T17:46:01;18.69
37772;DS18B20;23610;59.380;24.642;2022-07-23T17:51:04;18.75
37772;DS18B20;23610;59.380;24.642;2022-07-23T17:56:09;18.56
37772;DS18B20;23610;59.380;24.642;2022-07-23T18:01:12;18.50
37772;DS18B20;23610;59.380;24.642;2022-07-23T18:06:16;18.38
37772;DS18B20;23610;59.380;24.642;2022-07-23T18:11:20;18.38
37772;DS18B20;23610;59.380;24.642;2022-07-23T18:16:23;18.25
37772;DS18B20;23610;59.380;24.642;2022-07-23T18:21:26;18.25
37772;DS18B20;23610;59.380;24.642;2022-07-23T18:26:30;18.25
37772;DS18B20;23610;59.380;24.642;2022-07-23T18:31:34;18.31
37772;DS18B20;23610;59.380;24.642;2022-07-23T18:36:37;18.25
37772;DS18B20;23610;59.380;24.642;2022-07-23T18:41:42;18.25
37772;DS18B20;23610;59.380;24.642;2022-07-23T18:46:45;18.31
37772;DS18B20;23610;59.380;24.642;2022-07-23T18:51:48;18.19
37772;DS18B20;23610;59.380;24.642;2022-07-23T18:56:51;18.19
37772;DS18B20;23610;59.380;24.642;2022-07-23T19:02:00;18.13
37772;DS18B20;23610;59.380;24.642;2022-07-23T19:07:04;18.19
37772;DS18B20;23610;59.380;24.642;2022-07-23T19:12:07;18.06
37772;DS18B20;23610;59.380;24.642;2022-07-23T19:17:10;17.94
37772;DS18B20;23610;59.380;24.642;2022-07-23T19:22:13;17.94
37772;DS18B20;23610;59.380;24.642;2022-07-23T19:27:16;17.81
37772;DS18B20;23610;59.380;24.642;2022-07-23T19:32:21;17.75
37772;DS18B20;23610;59.380;24.642;2022-07-23T19:37:24;17.81
37772;DS18B20;23610;59.380;24.642;2022-07-23T19:42:28;17.81
37772;DS18B20;23610;59.380;24.642;2022-07-23T19:47:37;17.75
37772;DS18B20;23610;59.380;24.642;2022-07-23T19:52:52;17.81
37772;DS18B20;23610;59.380;24.642;2022-07-23T19:57:58;17.75
37772;DS18B20;23610;59.380;24.642;2022-07-23T20:03:01;17.69
37772;DS18B20;23610;59.380;24.642;2022-07-23T20:08:04;17.69
37772;DS18B20;23610;59.380;24.642;2022-07-23T20:13:08;17.75
37772;DS18B20;23610;59.380;24.642;2022-07-23T20:18:11;17.69
37772;DS18B20;23610;59.380;24.642;2022-07-23T20:23:14;17.69
37772;DS18B20;23610;59.380;24.642;2022-07-23T20:28:18;17.69
37772;DS18B20;23610;59.380;24.642;2022-07-23T20:33:23;17.63
37772;DS18B20;23610;59.380;24.642;2022-07-23T20:38:27;17.63
37772;DS18B20;23610;59.380;24.642;2022-07-23T20:43:30;17.56
37772;DS18B20;23610;59.380;24.642;2022-07-23T20:48:34;17.56
37772;DS18B20;23610;59.380;24.642;2022-07-23T20:53:37;17.56
37772;DS18B20;23610;59.380;24.642;2022-07-23T20:58:42;17.56
37772;DS18B20;23610;59.380;24.642;2022-07-23T21:03:45;17.56
37772;DS18B20;23610;59.380;24.642;2022-07-23T21:08:48;17.56
37772;DS18B20;23610;59.380;24.642;2022-07-23T21:13:51;17.63
37772;DS18B20;23610;59.380;24.642;2022-07-23T21:18:53;17.50
37772;DS18B20;23610;59.380;24.642;2022-07-23T21:23:56;17.44
37772;DS18B20;23610;59.380;24.642;2022-07-23T21:29:02;17.56
37772;DS18B20;23610;59.380;24.642;2022-07-23T21:34:08;17.50
37772;DS18B20;23610;59.380;24.642;2022-07-23T21:39:11;17.56
37772;DS18B20;23610;59.380;24.642;2022-07-23T21:44:14;17.50
37772;DS18B20;23610;59.380;24.642;2022-07-23T21:49:17;17.50
37772;DS18B20;23610;59.380;24.642;2022-07-23T21:54:20;17.50
37772;DS18B20;23610;59.380;24.642;2022-07-23T21:59:24;17.50
37772;DS18B20;23610;59.380;24.642;2022-07-23T22:04:27;17.50
37772;DS18B20;23610;59.380;24.642;2022-07-23T22:09:30;17.50
37772;DS18B20;23610;59.380;24.642;2022-07-23T22:14:33;17.44
37772;DS18B20;23610;59.380;24.642;2022-07-23T22:19:41;17.31
37772;DS18B20;23610;59.380;24.642;2022-07-23T22:24:44;17.19
37772;DS18B20;23610;59.380;24.642;2022-07-23T22:29:48;17.06
37772;DS18B20;23610;59.380;24.642;2022-07-23T22:34:50;17.00
37772;DS18B20;23610;59.380;24.642;2022-07-23T22:39:53;16.94
37772;DS18B20;23610;59.380;24.642;2022-07-23T22:44:56;17.00
37772;DS18B20;23610;59.380;24.642;2022-07-23T22:49:59;16.88
37772;DS18B20;23610;59.380;24.642;2022-07-23T22:55:12;16.94
37772;DS18B20;23610;59.380;24.642;2022-07-23T23:00:15;16.88
37772;DS18B20;23610;59.380;24.642;2022-07-23T23:05:21;16.94
37772;DS18B20;23610;59.380;24.642;2022-07-23T23:10:24;17.06
37772;DS18B20;23610;59.380;24.642;2022-07-23T23:15:27;16.88
37772;DS18B20;23610;59.380;24.642;2022-07-23T23:20:30;16.88
37772;DS18B20;23610;59.380;24.642;2022-07-23T23:25:33;16.94
37772;DS18B20;23610;59.380;24.642;2022-07-23T23:30:36;16.88
37772;DS18B20;23610;59.380;24.642;2022-07-23T23:35:39;17.00
37772;DS18B20;23610;59.380;24.642;2022-07-23T23:40:42;16.94
37772;DS18B20;23610;59.380;24.642;2022-07-23T23:45:45;16.81
37772;DS18B20;23610;59.380;24.642;2022-07-23T23:50:48;16.81
37772;DS18B20;23610;59.380;24.642;2022-07-23T23:55:52;16.81
